createdAt,value
2018-08-23T00:00:05.966Z,0
2018-08-23T00:01:14.614Z,0
2018-08-23T00:02:23.266Z,0
2018-08-23T00:03:32.236Z,0
2018-08-23T00:04:40.881Z,0
2018-08-23T00:05:49.523Z,0
2018-08-23T00:06:58.170Z,0
2018-08-23T00:08:07.103Z,0
2018-08-23T00:09:16.001Z,0
2018-08-23T00:10:24.921Z,0
2018-08-23T00:11:34.096Z,0
2018-08-23T00:12:42.742Z,0
2018-08-23T00:13:51.499Z,0
2018-08-23T00:15:00.048Z,0
2018-08-23T00:16:08.958Z,0
2018-08-23T00:17:17.607Z,0
2018-08-23T00:18:26.254Z,0
2018-08-23T00:19:34.907Z,0
2018-08-23T00:20:43.813Z,0
2018-08-23T00:21:52.464Z,0
2018-08-23T00:23:01.109Z,0
2018-08-23T00:24:09.764Z,0
2018-08-23T00:25:18.409Z,0
2018-08-23T00:26:27.057Z,0
2018-08-23T00:27:35.704Z,0
2018-08-23T00:28:44.351Z,0
2018-08-23T00:29:53.545Z,0
2018-08-23T00:31:02.196Z,0
2018-08-23T00:32:11.105Z,0
2018-08-23T00:33:19.747Z,0
2018-08-23T00:34:28.399Z,0
2018-08-23T00:35:37.047Z,0
2018-08-23T00:36:45.693Z,0
2018-08-23T00:37:54.342Z,0
2018-08-23T00:39:02.991Z,0
2018-08-23T00:40:11.652Z,0
2018-08-23T00:41:20.303Z,0
2018-08-23T00:42:28.947Z,0
2018-08-23T00:43:37.596Z,0
2018-08-23T00:44:46.245Z,0
2018-08-23T00:45:54.893Z,0
2018-08-23T00:47:03.817Z,0
2018-08-23T00:48:12.463Z,0
2018-08-23T00:49:21.375Z,0
2018-08-23T00:50:30.288Z,0
2018-08-23T00:51:38.942Z,0
2018-08-23T00:52:47.585Z,0
2018-08-23T00:53:56.238Z,0
2018-08-23T00:55:04.885Z,0
2018-08-23T00:56:13.536Z,0
2018-08-23T00:57:22.177Z,0
2018-08-23T00:58:30.829Z,0
2018-08-23T00:59:39.739Z,0
2018-08-23T01:00:48.391Z,0
2018-08-23T01:01:57.033Z,0
2018-08-23T01:03:05.682Z,0
2018-08-23T01:04:14.329Z,0
2018-08-23T01:05:23.243Z,0
2018-08-23T01:06:31.881Z,0
2018-08-23T01:07:40.535Z,0
2018-08-23T01:08:49.444Z,0
2018-08-23T01:09:58.357Z,0
2018-08-23T01:11:06.998Z,0
2018-08-23T01:12:15.652Z,0
2018-08-23T01:13:24.297Z,0
2018-08-23T01:14:32.953Z,0
2018-08-23T01:15:41.593Z,0
2018-08-23T01:16:50.243Z,0
2018-08-23T01:17:59.166Z,0
2018-08-23T01:19:07.821Z,0
2018-08-23T01:20:16.471Z,0
2018-08-23T01:21:25.111Z,0
2018-08-23T01:22:34.024Z,0
2018-08-23T01:23:42.668Z,0
2018-08-23T01:24:51.334Z,0
2018-08-23T01:26:00.239Z,0
2018-08-23T01:27:08.886Z,0
2018-08-23T01:28:17.558Z,0
2018-08-23T01:29:26.182Z,0
2018-08-23T01:30:34.825Z,0
2018-08-23T01:31:43.478Z,0
2018-08-23T01:32:52.131Z,0
2018-08-23T01:34:01.047Z,0
2018-08-23T01:35:09.693Z,0
2018-08-23T01:36:18.604Z,0
2018-08-23T01:37:27.242Z,0
2018-08-23T01:38:35.894Z,0
2018-08-23T01:39:44.544Z,0
2018-08-23T01:40:53.455Z,0
2018-08-23T01:42:02.122Z,0
2018-08-23T01:43:11.034Z,0
2018-08-23T01:44:19.685Z,0
2018-08-23T01:45:28.329Z,0
2018-08-23T01:46:36.984Z,0
2018-08-23T01:47:45.623Z,0
2018-08-23T01:48:54.274Z,0
2018-08-23T01:50:02.918Z,0
2018-08-23T01:51:11.574Z,0
2018-08-23T01:52:20.212Z,0
2018-08-23T01:53:28.861Z,0
2018-08-23T01:54:37.504Z,0
2018-08-23T01:55:46.173Z,0
2018-08-23T01:56:54.814Z,0
2018-08-23T01:58:03.466Z,0
2018-08-23T01:59:12.375Z,0
2018-08-23T02:00:21.022Z,0
2018-08-23T02:01:29.680Z,0
2018-08-23T02:02:38.326Z,0
2018-08-23T02:03:47.239Z,0
2018-08-23T02:04:55.881Z,0
2018-08-23T02:06:04.533Z,0
2018-08-23T02:07:13.179Z,0
2018-08-23T02:08:21.826Z,0
2018-08-23T02:09:30.470Z,0
2018-08-23T02:10:39.119Z,0
2018-08-23T02:11:47.764Z,0
2018-08-23T02:12:56.678Z,0
2018-08-23T02:14:05.585Z,0
2018-08-23T02:15:14.237Z,0
2018-08-23T02:16:23.162Z,0
2018-08-23T02:17:31.817Z,0
2018-08-23T02:18:40.470Z,0
2018-08-23T02:19:49.383Z,0
2018-08-23T02:20:58.295Z,0
2018-08-23T02:22:06.944Z,0
2018-08-23T02:23:15.596Z,0
2018-08-23T02:24:24.243Z,0
2018-08-23T02:25:32.888Z,0
2018-08-23T02:26:41.539Z,0
2018-08-23T02:27:50.190Z,0
2018-08-23T02:28:58.837Z,0
2018-08-23T02:30:07.750Z,0
2018-08-23T02:31:16.659Z,0
2018-08-23T02:32:25.310Z,0
2018-08-23T02:33:33.957Z,0
2018-08-23T02:34:42.604Z,0
2018-08-23T02:35:51.252Z,0
2018-08-23T02:36:59.896Z,0
2018-08-23T02:38:08.915Z,0
2018-08-23T02:39:17.557Z,0
2018-08-23T02:40:26.207Z,0
2018-08-23T02:41:34.851Z,0
2018-08-23T02:42:43.497Z,0
2018-08-23T02:43:52.145Z,0
2018-08-23T02:45:00.790Z,0
2018-08-23T02:46:09.431Z,0
2018-08-23T02:47:18.355Z,0
2018-08-23T02:48:27.264Z,0
2018-08-23T02:49:35.913Z,0
2018-08-23T02:50:44.565Z,0
2018-08-23T02:51:54.016Z,0
2018-08-23T02:53:02.661Z,0
2018-08-23T02:54:11.317Z,0
2018-08-23T02:55:19.966Z,0
2018-08-23T02:56:28.621Z,0
2018-08-23T02:57:37.267Z,0
2018-08-23T02:58:45.917Z,0
2018-08-23T02:59:54.569Z,0
2018-08-23T03:01:03.212Z,0
2018-08-23T03:02:11.862Z,0
2018-08-23T03:03:20.527Z,0
2018-08-23T03:04:29.171Z,0
2018-08-23T03:05:37.822Z,0
2018-08-23T03:06:46.471Z,0
2018-08-23T03:07:55.128Z,0
2018-08-23T03:09:03.821Z,0
2018-08-23T03:10:12.738Z,0
2018-08-23T03:11:21.384Z,0
2018-08-23T03:12:30.033Z,0
2018-08-23T03:13:38.684Z,0
2018-08-23T03:14:47.329Z,0
2018-08-23T03:15:56.763Z,0
2018-08-23T03:17:05.673Z,0
2018-08-23T03:18:14.327Z,0
2018-08-23T03:19:22.969Z,0
2018-08-23T03:20:31.616Z,0
2018-08-23T03:21:40.263Z,0
2018-08-23T03:22:48.913Z,0
2018-08-23T03:23:57.557Z,0
2018-08-23T03:25:06.223Z,0
2018-08-23T03:26:14.868Z,0
2018-08-23T03:27:23.784Z,0
2018-08-23T03:28:32.429Z,0
2018-08-23T03:29:41.077Z,0
2018-08-23T03:30:49.733Z,0
2018-08-23T03:31:58.641Z,0
2018-08-23T03:33:07.570Z,0
2018-08-23T03:34:16.203Z,0
2018-08-23T03:35:25.116Z,0
2018-08-23T03:36:34.029Z,0
2018-08-23T03:37:42.686Z,0
2018-08-23T03:38:51.336Z,0
2018-08-23T03:40:00.244Z,0
2018-08-23T03:41:08.886Z,0
2018-08-23T03:42:17.544Z,0
2018-08-23T03:43:26.444Z,0
2018-08-23T03:44:35.357Z,0
2018-08-23T03:45:43.997Z,0
2018-08-23T03:46:52.645Z,0
2018-08-23T03:48:01.294Z,0
2018-08-23T03:49:10.472Z,0
2018-08-23T03:50:19.125Z,0
2018-08-23T03:51:28.032Z,0
2018-08-23T03:52:37.177Z,0
2018-08-23T03:53:45.731Z,0
2018-08-23T03:54:54.831Z,0
2018-08-23T03:56:03.481Z,4
2018-08-23T03:57:12.128Z,0
2018-08-23T03:58:20.781Z,0
2018-08-23T03:59:29.441Z,4
2018-08-23T04:00:38.080Z,0
2018-08-23T04:01:46.726Z,4
2018-08-23T04:02:55.369Z,4
2018-08-23T04:04:04.294Z,8
2018-08-23T04:05:12.942Z,8
2018-08-23T04:06:21.849Z,8
2018-08-23T04:07:30.761Z,12
2018-08-23T04:08:39.408Z,12
2018-08-23T04:09:48.062Z,12
2018-08-23T04:10:56.705Z,16
2018-08-23T04:12:05.357Z,20
2018-08-23T04:13:14.256Z,20
2018-08-23T04:14:22.908Z,24
2018-08-23T04:15:31.668Z,28
2018-08-23T04:16:40.206Z,32
2018-08-23T04:17:48.843Z,36
2018-08-23T04:18:57.507Z,40
2018-08-23T04:20:06.147Z,48
2018-08-23T04:21:14.794Z,52
2018-08-23T04:22:23.697Z,60
2018-08-23T04:23:32.346Z,68
2018-08-23T04:24:40.997Z,72
2018-08-23T04:25:49.658Z,80
2018-08-23T04:26:58.299Z,88
2018-08-23T04:28:07.199Z,96
2018-08-23T04:29:15.852Z,104
2018-08-23T04:30:24.768Z,112
2018-08-23T04:31:33.425Z,124
2018-08-23T04:32:42.062Z,132
2018-08-23T04:33:50.712Z,140
2018-08-23T04:34:59.897Z,144
2018-08-23T04:36:08.549Z,156
2018-08-23T04:37:17.454Z,164
2018-08-23T04:38:26.628Z,176
2018-08-23T04:39:35.541Z,184
2018-08-23T04:40:44.198Z,192
2018-08-23T04:41:52.843Z,208
2018-08-23T04:43:01.489Z,224
2018-08-23T04:44:10.133Z,240
2018-08-23T04:45:18.781Z,248
2018-08-23T04:46:27.698Z,264
2018-08-23T04:47:36.341Z,280
2018-08-23T04:48:44.991Z,300
2018-08-23T04:49:53.897Z,320
2018-08-23T04:51:02.553Z,340
2018-08-23T04:52:11.195Z,360
2018-08-23T04:53:20.111Z,384
2018-08-23T04:54:28.749Z,408
2018-08-23T04:55:37.404Z,432
2018-08-23T04:56:46.048Z,456
2018-08-23T04:57:54.693Z,480
2018-08-23T04:59:03.335Z,504
2018-08-23T05:00:11.986Z,536
2018-08-23T05:01:20.635Z,564
2018-08-23T05:02:29.288Z,600
2018-08-23T05:03:38.219Z,636
2018-08-23T05:04:47.110Z,676
2018-08-23T05:05:56.013Z,708
2018-08-23T05:07:04.661Z,744
2018-08-23T05:08:13.311Z,776
2018-08-23T05:09:21.955Z,824
2018-08-23T05:10:30.607Z,864
2018-08-23T05:11:39.258Z,900
2018-08-23T05:12:48.166Z,948
2018-08-23T05:13:57.255Z,1004
2018-08-23T05:15:05.781Z,1060
2018-08-23T05:16:14.425Z,1108
2018-08-23T05:17:23.078Z,1156
2018-08-23T05:18:31.995Z,1196
2018-08-23T05:19:40.634Z,1240
2018-08-23T05:20:49.281Z,1280
2018-08-23T05:21:58.196Z,1316
2018-08-23T05:23:07.236Z,1356
2018-08-23T05:24:15.865Z,1392
2018-08-23T05:25:24.511Z,1428
2018-08-23T05:26:33.159Z,1456
2018-08-23T05:27:41.814Z,1480
2018-08-23T05:28:50.469Z,1512
2018-08-23T05:29:59.119Z,1548
2018-08-23T05:31:07.762Z,1588
2018-08-23T05:32:16.414Z,1628
2018-08-23T05:33:25.059Z,1664
2018-08-23T05:34:33.723Z,1680
2018-08-23T05:35:42.628Z,1704
2018-08-23T05:36:51.279Z,1724
2018-08-23T05:37:59.928Z,1756
2018-08-23T05:39:08.848Z,1792
2018-08-23T05:40:17.496Z,1840
2018-08-23T05:41:26.141Z,1892
2018-08-23T05:42:35.053Z,1928
2018-08-23T05:43:43.698Z,1964
2018-08-23T05:44:52.350Z,2000
2018-08-23T05:46:00.992Z,2016
2018-08-23T05:47:09.639Z,2044
2018-08-23T05:48:18.285Z,2084
2018-08-23T05:49:27.211Z,2120
2018-08-23T05:50:35.847Z,2144
2018-08-23T05:51:44.764Z,2188
2018-08-23T05:52:53.408Z,2216
2018-08-23T05:54:02.061Z,2256
2018-08-23T05:55:10.709Z,2284
2018-08-23T05:56:19.357Z,2304
2018-08-23T05:57:28.000Z,2320
2018-08-23T05:58:36.644Z,2336
2018-08-23T05:59:45.301Z,2360
2018-08-23T06:00:53.944Z,2408
2018-08-23T06:02:02.860Z,2472
2018-08-23T06:03:11.603Z,2532
2018-08-23T06:04:20.260Z,2588
2018-08-23T06:05:28.901Z,2644
2018-08-23T06:06:37.556Z,2696
2018-08-23T06:07:46.457Z,2756
2018-08-23T06:08:55.375Z,2788
2018-08-23T06:10:04.020Z,2816
2018-08-23T06:11:12.670Z,2832
2018-08-23T06:12:21.306Z,2836
2018-08-23T06:13:29.961Z,2864
2018-08-23T06:14:38.612Z,2912
2018-08-23T06:15:47.260Z,2984
2018-08-23T06:16:55.911Z,3092
2018-08-23T06:18:04.818Z,3136
2018-08-23T06:19:13.467Z,3108
2018-08-23T06:20:22.112Z,3040
2018-08-23T06:21:30.770Z,2984
2018-08-23T06:22:39.409Z,2944
2018-08-23T06:23:48.065Z,2892
2018-08-23T06:24:56.706Z,2872
2018-08-23T06:26:05.363Z,2784
2018-08-23T06:27:14.053Z,2768
2018-08-23T06:28:23.006Z,2748
2018-08-23T06:29:31.918Z,2684
2018-08-23T06:30:40.579Z,2672
2018-08-23T06:31:49.229Z,2628
2018-08-23T06:32:58.302Z,2672
2018-08-23T06:34:07.008Z,2716
2018-08-23T06:35:15.582Z,2716
2018-08-23T06:36:24.505Z,2756
2018-08-23T06:37:33.466Z,2780
2018-08-23T06:38:42.143Z,2828
2018-08-23T06:39:51.001Z,2876
2018-08-23T06:40:59.658Z,2952
2018-08-23T06:42:08.301Z,3012
2018-08-23T06:43:16.996Z,3004
2018-08-23T06:44:25.631Z,3032
2018-08-23T06:45:34.250Z,3036
2018-08-23T06:46:42.897Z,3012
2018-08-23T06:47:51.807Z,2992
2018-08-23T06:49:00.545Z,2992
2018-08-23T06:50:09.093Z,2952
2018-08-23T06:51:18.091Z,2904
2018-08-23T06:52:26.673Z,2840
2018-08-23T06:53:35.310Z,2800
2018-08-23T06:54:43.948Z,2768
2018-08-23T06:55:52.598Z,2796
2018-08-23T06:57:01.250Z,2808
2018-08-23T06:58:09.889Z,2800
2018-08-23T06:59:18.805Z,2772
2018-08-23T07:00:27.711Z,2736
2018-08-23T07:01:36.698Z,2744
2018-08-23T07:02:45.574Z,2784
2018-08-23T07:03:54.330Z,2812
2018-08-23T07:05:03.388Z,2852
2018-08-23T07:06:12.039Z,2876
2018-08-23T07:07:20.678Z,2872
2018-08-23T07:08:29.595Z,2828
2018-08-23T07:09:38.252Z,2816
2018-08-23T07:10:46.909Z,2816
2018-08-23T07:11:55.659Z,2820
2018-08-23T07:13:04.208Z,2816
2018-08-23T07:14:12.866Z,2816
2018-08-23T07:15:21.513Z,2848
2018-08-23T07:16:30.166Z,2872
2018-08-23T07:17:39.560Z,2888
2018-08-23T07:18:48.110Z,2892
2018-08-23T07:19:56.755Z,2852
2018-08-23T07:21:05.412Z,2904
2018-08-23T07:22:14.049Z,2896
2018-08-23T07:23:22.706Z,2872
2018-08-23T07:24:31.878Z,2868
2018-08-23T07:25:40.585Z,2888
2018-08-23T07:26:49.270Z,2880
2018-08-23T07:27:58.162Z,2892
2018-08-23T07:29:06.815Z,2872
2018-08-23T07:30:15.617Z,2904
2018-08-23T07:31:24.117Z,2896
2018-08-23T07:32:33.363Z,2932
2018-08-23T07:33:42.017Z,2928
2018-08-23T07:34:50.657Z,2972
2018-08-23T07:35:59.317Z,2940
2018-08-23T07:37:07.961Z,2960
2018-08-23T07:38:16.615Z,2832
2018-08-23T07:39:25.256Z,2900
2018-08-23T07:40:33.911Z,2972
2018-08-23T07:41:42.556Z,2932
2018-08-23T07:42:51.219Z,2908
2018-08-23T07:43:59.848Z,2868
2018-08-23T07:45:08.500Z,2848
2018-08-23T07:46:17.152Z,2936
2018-08-23T07:47:25.803Z,2980
2018-08-23T07:48:34.531Z,2892
2018-08-23T07:49:43.116Z,2828
2018-08-23T07:50:52.061Z,2800
2018-08-23T07:52:00.713Z,2852
2018-08-23T07:53:10.159Z,2820
2018-08-23T07:54:18.586Z,2804
2018-08-23T07:55:27.233Z,2852
2018-08-23T07:56:35.882Z,2860
2018-08-23T07:57:44.803Z,2820
2018-08-23T07:58:53.447Z,2884
2018-08-23T08:00:02.370Z,2944
2018-08-23T08:01:11.274Z,2996
2018-08-23T08:02:19.927Z,3028
2018-08-23T08:03:28.573Z,2940
2018-08-23T08:04:37.220Z,3024
2018-08-23T08:05:46.137Z,3024
2018-08-23T08:06:54.780Z,3076
2018-08-23T08:08:03.431Z,3040
2018-08-23T08:09:12.087Z,3012
2018-08-23T08:10:20.736Z,2972
2018-08-23T08:11:29.384Z,3080
2018-08-23T08:12:38.040Z,3104
2018-08-23T08:13:46.689Z,3120
2018-08-23T08:14:55.361Z,3160
2018-08-23T08:16:03.984Z,3116
2018-08-23T08:17:12.899Z,2864
2018-08-23T08:18:21.550Z,3148
2018-08-23T08:19:30.210Z,3116
2018-08-23T08:20:38.873Z,2308
2018-08-23T08:21:47.527Z,2940
2018-08-23T08:22:56.194Z,3048
2018-08-23T08:24:05.357Z,2904
2018-08-23T08:25:15.848Z,3040
2018-08-23T08:26:24.495Z,2816
2018-08-23T08:27:33.145Z,3004
2018-08-23T08:28:41.795Z,3016
2018-08-23T08:29:50.450Z,3056
2018-08-23T08:30:59.096Z,3132
2018-08-23T08:32:07.750Z,2456
2018-08-23T08:33:17.141Z,3124
2018-08-23T08:34:25.753Z,2708
2018-08-23T08:35:34.397Z,3412
2018-08-23T08:36:43.050Z,3308
2018-08-23T08:37:51.698Z,2652
2018-08-23T08:39:00.364Z,2676
2018-08-23T08:40:09.009Z,3336
2018-08-23T08:41:17.662Z,3452
2018-08-23T08:42:26.573Z,3380
2018-08-23T08:43:35.223Z,2940
2018-08-23T08:44:43.878Z,3204
2018-08-23T08:45:52.536Z,3364
2018-08-23T08:47:01.187Z,3512
2018-08-23T08:48:09.832Z,3032
2018-08-23T08:49:18.488Z,2576
2018-08-23T08:50:27.203Z,2584
2018-08-23T08:51:36.397Z,3036
2018-08-23T08:52:45.043Z,2964
2018-08-23T08:53:53.697Z,3464
2018-08-23T08:55:02.351Z,3560
2018-08-23T08:56:11.263Z,3600
2018-08-23T08:57:20.027Z,3928
2018-08-23T08:58:28.565Z,3804
2018-08-23T08:59:37.217Z,3400
2018-08-23T09:00:46.136Z,3796
2018-08-23T09:01:54.791Z,4508
2018-08-23T09:03:03.492Z,4460
2018-08-23T09:04:12.092Z,4048
2018-08-23T09:05:20.743Z,3832
2018-08-23T09:06:29.397Z,3768
2018-08-23T09:07:38.042Z,3588
2018-08-23T09:08:46.691Z,3560
2018-08-23T09:09:55.452Z,3440
2018-08-23T09:11:03.997Z,3248
2018-08-23T09:12:12.645Z,3148
2018-08-23T09:13:21.298Z,3112
2018-08-23T09:14:29.947Z,3000
2018-08-23T09:15:38.602Z,3044
2018-08-23T09:16:47.251Z,3120
2018-08-23T09:17:55.901Z,3140
2018-08-23T09:19:04.552Z,3172
2018-08-23T09:20:13.469Z,3156
2018-08-23T09:21:22.127Z,3124
2018-08-23T09:22:30.786Z,3080
2018-08-23T09:23:39.440Z,3128
2018-08-23T09:24:48.083Z,3104
2018-08-23T09:25:56.833Z,3044
2018-08-23T09:27:05.818Z,3016
2018-08-23T09:28:14.705Z,3124
2018-08-23T09:29:23.614Z,3108
2018-08-23T09:30:32.269Z,3124
2018-08-23T09:31:40.977Z,3176
2018-08-23T09:32:49.637Z,3104
2018-08-23T09:33:58.558Z,3220
2018-08-23T09:35:07.222Z,3248
2018-08-23T09:36:16.147Z,3320
2018-08-23T09:37:24.799Z,3512
2018-08-23T09:38:33.455Z,3604
2018-08-23T09:39:42.101Z,3752
2018-08-23T09:40:51.011Z,3900
2018-08-23T09:41:59.750Z,4064
2018-08-23T09:43:08.541Z,4168
2018-08-23T09:44:17.320Z,4772
2018-08-23T09:45:25.974Z,4756
2018-08-23T09:46:35.247Z,4396
2018-08-23T09:47:43.903Z,4436
2018-08-23T09:48:52.554Z,3920
2018-08-23T09:50:01.262Z,3216
2018-08-23T09:51:09.941Z,2784
2018-08-23T09:52:18.902Z,2780
2018-08-23T09:53:27.806Z,2832
2018-08-23T09:54:36.453Z,2928
2018-08-23T09:55:45.101Z,3000
2018-08-23T09:56:53.752Z,3048
2018-08-23T09:58:02.411Z,3312
2018-08-23T09:59:11.061Z,3984
2018-08-23T10:00:19.716Z,4360
2018-08-23T10:01:28.356Z,4568
2018-08-23T10:02:37.018Z,4464
2018-08-23T10:03:45.658Z,4764
2018-08-23T10:04:54.741Z,3964
2018-08-23T10:06:03.384Z,3908
2018-08-23T10:07:12.046Z,4392
2018-08-23T10:08:20.955Z,5008
2018-08-23T10:09:29.663Z,4656
2018-08-23T10:10:38.306Z,5276
2018-08-23T10:11:47.003Z,5404
2018-08-23T10:12:55.617Z,5124
2018-08-23T10:14:04.273Z,5196
2018-08-23T10:15:12.927Z,5728
2018-08-23T10:16:21.850Z,4756
2018-08-23T10:17:30.510Z,4584
2018-08-23T10:18:39.182Z,4788
2018-08-23T10:19:48.102Z,5108
2018-08-23T10:20:56.743Z,5324
2018-08-23T10:22:05.403Z,5836
2018-08-23T10:23:14.050Z,6076
2018-08-23T10:24:22.709Z,6160
2018-08-23T10:25:31.616Z,5608
2018-08-23T10:26:40.341Z,5100
2018-08-23T10:27:48.920Z,4496
2018-08-23T10:28:57.586Z,4484
2018-08-23T10:30:06.242Z,4500
2018-08-23T10:31:14.883Z,5128
2018-08-23T10:32:23.615Z,6504
2018-08-23T10:33:32.187Z,6264
2018-08-23T10:34:40.848Z,6560
2018-08-23T10:35:49.503Z,5700
2018-08-23T10:36:58.160Z,6432
2018-08-23T10:38:06.867Z,6644
2018-08-23T10:39:15.465Z,6376
2018-08-23T10:40:24.111Z,6388
2018-08-23T10:41:32.766Z,6156
2018-08-23T10:42:41.412Z,6468
2018-08-23T10:43:50.071Z,6408
2018-08-23T10:44:58.721Z,6536
2018-08-23T10:46:07.644Z,6416
2018-08-23T10:47:16.286Z,5368
2018-08-23T10:48:25.450Z,5712
2018-08-23T10:49:34.105Z,5036
2018-08-23T10:50:43.244Z,5752
2018-08-23T10:51:51.918Z,4440
2018-08-23T10:53:00.580Z,4560
2018-08-23T10:54:09.228Z,4708
2018-08-23T10:55:18.168Z,5448
2018-08-23T10:56:26.914Z,4772
2018-08-23T10:57:35.574Z,4796
2018-08-23T10:58:44.989Z,5328
2018-08-23T10:59:55.134Z,5748
2018-08-23T11:01:03.782Z,4980
2018-08-23T11:02:12.704Z,4468
2018-08-23T11:03:21.616Z,4000
2018-08-23T11:04:30.272Z,4076
2018-08-23T11:05:40.815Z,4516
2018-08-23T11:06:49.472Z,5380
2018-08-23T11:07:58.128Z,3948
2018-08-23T11:09:06.783Z,3672
2018-08-23T11:10:15.439Z,3484
2018-08-23T11:11:24.084Z,3748
2018-08-23T11:12:32.743Z,3348
2018-08-23T11:13:41.394Z,3124
2018-08-23T11:14:50.055Z,3040
2018-08-23T11:15:58.697Z,4252
2018-08-23T11:17:07.957Z,4052
2018-08-23T11:18:16.847Z,3352
2018-08-23T11:19:25.509Z,3272
2018-08-23T11:20:34.152Z,3576
2018-08-23T11:21:42.824Z,3796
2018-08-23T11:22:51.475Z,5476
2018-08-23T11:24:00.140Z,4632
2018-08-23T11:25:08.793Z,5148
2018-08-23T11:26:17.441Z,4508
2018-08-23T11:27:26.095Z,3968
2018-08-23T11:28:34.743Z,3436
2018-08-23T11:29:43.595Z,4520
2018-08-23T11:30:52.054Z,4644
2018-08-23T11:32:00.713Z,4620
2018-08-23T11:33:09.357Z,4568
2018-08-23T11:34:18.018Z,4692
2018-08-23T11:35:26.935Z,4800
2018-08-23T11:36:35.594Z,5064
2018-08-23T11:37:44.241Z,4704
2018-08-23T11:38:52.898Z,5860
2018-08-23T11:40:01.552Z,5368
2018-08-23T11:41:10.210Z,6328
2018-08-23T11:42:18.855Z,7112
2018-08-23T11:43:27.509Z,7064
2018-08-23T11:44:36.167Z,6556
2018-08-23T11:45:44.823Z,5520
2018-08-23T11:46:53.478Z,4892
2018-08-23T11:48:02.123Z,4532
2018-08-23T11:49:10.776Z,4428
2018-08-23T11:50:19.427Z,4376
2018-08-23T11:51:28.088Z,4284
2018-08-23T11:52:36.735Z,4280
2018-08-23T11:53:45.848Z,4260
2018-08-23T11:54:54.497Z,4940
2018-08-23T11:56:03.157Z,4460
2018-08-23T11:57:11.804Z,4448
2018-08-23T11:58:20.461Z,4524
2018-08-23T11:59:29.125Z,4556
2018-08-23T12:00:37.768Z,4684
2018-08-23T12:01:46.418Z,4820
2018-08-23T12:02:55.073Z,4792
2018-08-23T12:04:03.997Z,4828
2018-08-23T12:05:12.917Z,5152
2018-08-23T12:06:21.846Z,5892
2018-08-23T12:07:30.492Z,5884
2018-08-23T12:08:39.148Z,5816
2018-08-23T12:09:47.863Z,5672
2018-08-23T12:10:57.052Z,5604
2018-08-23T12:12:05.708Z,5940
2018-08-23T12:13:14.623Z,6420
2018-08-23T12:14:23.538Z,5836
2018-08-23T12:15:32.230Z,5420
2018-08-23T12:16:41.208Z,5784
2018-08-23T12:17:49.807Z,5340
2018-08-23T12:18:58.457Z,5488
2018-08-23T12:20:07.112Z,5740
2018-08-23T12:21:15.769Z,4776
2018-08-23T12:22:24.425Z,4556
2018-08-23T12:23:33.077Z,4280
2018-08-23T12:24:41.990Z,4780
2018-08-23T12:25:50.745Z,4640
2018-08-23T12:26:59.300Z,3944
2018-08-23T12:28:07.959Z,3796
2018-08-23T12:29:16.609Z,3700
2018-08-23T12:30:25.261Z,3484
2018-08-23T12:31:33.980Z,3512
2018-08-23T12:32:42.575Z,4956
2018-08-23T12:33:51.227Z,4284
2018-08-23T12:34:59.927Z,4536
2018-08-23T12:36:09.074Z,4296
2018-08-23T12:37:17.721Z,4264
2018-08-23T12:38:26.374Z,4436
2018-08-23T12:39:35.026Z,4328
2018-08-23T12:40:43.939Z,4308
2018-08-23T12:41:52.594Z,4316
2018-08-23T12:43:01.252Z,4352
2018-08-23T12:44:09.905Z,4340
2018-08-23T12:45:18.559Z,4420
2018-08-23T12:46:27.239Z,4300
2018-08-23T12:47:35.869Z,4080
2018-08-23T12:48:44.518Z,3912
2018-08-23T12:49:53.275Z,3972
2018-08-23T12:51:01.823Z,4024
2018-08-23T12:52:10.487Z,4016
2018-08-23T12:53:19.222Z,4084
2018-08-23T12:54:27.876Z,4060
2018-08-23T12:55:36.521Z,3940
2018-08-23T12:56:45.175Z,4172
2018-08-23T12:57:53.834Z,4248
2018-08-23T12:59:02.491Z,3828
2018-08-23T13:00:11.161Z,4052
2018-08-23T13:01:20.097Z,3756
2018-08-23T13:02:29.136Z,3592
2018-08-23T13:03:38.960Z,4228
2018-08-23T13:04:47.587Z,3312
2018-08-23T13:05:56.234Z,3244
2018-08-23T13:07:04.920Z,4452
2018-08-23T13:08:13.558Z,4892
2018-08-23T13:09:22.528Z,4888
2018-08-23T13:10:31.174Z,4544
2018-08-23T13:11:39.829Z,4348
2018-08-23T13:12:48.481Z,4392
2018-08-23T13:13:57.146Z,4700
2018-08-23T13:15:05.796Z,4564
2018-08-23T13:16:14.446Z,3296
2018-08-23T13:17:23.115Z,3984
2018-08-23T13:18:32.011Z,4096
2018-08-23T13:19:40.995Z,4168
2018-08-23T13:20:49.646Z,4200
2018-08-23T13:21:58.408Z,4372
2018-08-23T13:23:07.371Z,3224
2018-08-23T13:24:16.032Z,2968
2018-08-23T13:25:24.938Z,3700
2018-08-23T13:26:33.595Z,4220
2018-08-23T13:27:42.812Z,4372
2018-08-23T13:28:51.378Z,4164
2018-08-23T13:30:00.165Z,4036
2018-08-23T13:31:08.689Z,2932
2018-08-23T13:32:17.333Z,3540
2018-08-23T13:33:25.993Z,3820
2018-08-23T13:34:34.655Z,3948
2018-08-23T13:35:43.313Z,4000
2018-08-23T13:36:52.070Z,4208
2018-08-23T13:38:00.616Z,4696
2018-08-23T13:39:09.275Z,4764
2018-08-23T13:40:17.929Z,4720
2018-08-23T13:41:26.587Z,4936
2018-08-23T13:42:35.292Z,4568
2018-08-23T13:43:43.888Z,4208
2018-08-23T13:44:52.882Z,3832
2018-08-23T13:46:01.546Z,3652
2018-08-23T13:47:10.464Z,3520
2018-08-23T13:48:19.189Z,3504
2018-08-23T13:49:28.114Z,3616
2018-08-23T13:50:36.769Z,3900
2018-08-23T13:51:45.427Z,3936
2018-08-23T13:52:54.080Z,3800
2018-08-23T13:54:02.825Z,3552
2018-08-23T13:55:11.384Z,3460
2018-08-23T13:56:20.043Z,3116
2018-08-23T13:57:28.695Z,3580
2018-08-23T13:58:37.353Z,3608
2018-08-23T13:59:46.000Z,4220
2018-08-23T14:00:54.659Z,4028
2018-08-23T14:02:03.319Z,4160
2018-08-23T14:03:12.232Z,3380
2018-08-23T14:04:20.881Z,3684
2018-08-23T14:05:29.538Z,3584
2018-08-23T14:06:38.586Z,3484
2018-08-23T14:07:47.341Z,3252
2018-08-23T14:08:55.890Z,3232
2018-08-23T14:10:04.549Z,3184
2018-08-23T14:11:13.226Z,3112
2018-08-23T14:12:22.249Z,3092
2018-08-23T14:13:30.904Z,3044
2018-08-23T14:14:39.551Z,2960
2018-08-23T14:15:48.204Z,2976
2018-08-23T14:16:56.859Z,2936
2018-08-23T14:18:05.520Z,2792
2018-08-23T14:19:14.192Z,2892
2018-08-23T14:20:22.826Z,2904
2018-08-23T14:21:32.001Z,2856
2018-08-23T14:22:40.665Z,2776
2018-08-23T14:23:49.308Z,2788
2018-08-23T14:24:57.963Z,2840
2018-08-23T14:26:06.877Z,3212
2018-08-23T14:27:15.626Z,3548
2018-08-23T14:28:24.182Z,3420
2018-08-23T14:29:32.834Z,3196
2018-08-23T14:30:41.489Z,2956
2018-08-23T14:31:50.135Z,2784
2018-08-23T14:32:58.869Z,2768
2018-08-23T14:34:07.789Z,2672
2018-08-23T14:35:16.441Z,2620
2018-08-23T14:36:25.354Z,2612
2018-08-23T14:37:34.012Z,2628
2018-08-23T14:38:42.712Z,2616
2018-08-23T14:39:51.363Z,2664
2018-08-23T14:40:59.977Z,2700
2018-08-23T14:42:08.913Z,2624
2018-08-23T14:43:17.563Z,2592
2018-08-23T14:44:26.401Z,2564
2018-08-23T14:45:34.876Z,2552
2018-08-23T14:46:43.703Z,2528
2018-08-23T14:47:52.180Z,2488
2018-08-23T14:49:00.828Z,2492
2018-08-23T14:50:09.480Z,2444
2018-08-23T14:51:18.137Z,2412
2018-08-23T14:52:27.059Z,2392
2018-08-23T14:53:35.710Z,2404
2018-08-23T14:54:44.360Z,2392
2018-08-23T14:55:53.280Z,2360
2018-08-23T14:57:01.948Z,2368
2018-08-23T14:58:10.932Z,2372
2018-08-23T14:59:19.583Z,2356
2018-08-23T15:00:28.236Z,2340
2018-08-23T15:01:36.888Z,2304
2018-08-23T15:02:45.545Z,2272
2018-08-23T15:03:54.193Z,2260
2018-08-23T15:05:02.852Z,2228
2018-08-23T15:06:11.506Z,2236
2018-08-23T15:07:20.424Z,2176
2018-08-23T15:08:29.078Z,2144
2018-08-23T15:09:37.757Z,2108
2018-08-23T15:10:46.651Z,2104
2018-08-23T15:11:55.303Z,2120
2018-08-23T15:13:03.969Z,2124
2018-08-23T15:14:12.658Z,2120
2018-08-23T15:15:21.284Z,2092
2018-08-23T15:16:29.922Z,2076
2018-08-23T15:17:38.575Z,2080
2018-08-23T15:18:47.223Z,2064
2018-08-23T15:19:55.877Z,2048
2018-08-23T15:21:04.790Z,2028
2018-08-23T15:22:13.991Z,2048
2018-08-23T15:23:22.642Z,2020
2018-08-23T15:24:31.300Z,1996
2018-08-23T15:25:39.949Z,1964
2018-08-23T15:26:48.766Z,1980
2018-08-23T15:27:57.254Z,1988
2018-08-23T15:29:06.169Z,1976
2018-08-23T15:30:14.820Z,1972
2018-08-23T15:31:23.471Z,1976
2018-08-23T15:32:32.133Z,1972
2018-08-23T15:33:40.785Z,1928
2018-08-23T15:34:49.436Z,1888
2018-08-23T15:35:58.082Z,1892
2018-08-23T15:37:07.015Z,1880
2018-08-23T15:38:15.666Z,1836
2018-08-23T15:39:24.670Z,1852
2018-08-23T15:40:33.298Z,1856
2018-08-23T15:41:42.559Z,1820